createdAt,value
2022-12-20T00:00:09.301Z,61.60
2022-12-20T00:00:45.212Z,58.63
2022-12-20T00:01:24.290Z,58.13
2022-12-20T00:01:57.253Z,59.83
2022-12-20T00:02:30.281Z,60.17
2022-12-20T00:03:03.264Z,58.97
2022-12-20T00:03:37.081Z,62.07
2022-12-20T00:04:12.784Z,60.67
2022-12-20T00:04:45.581Z,59.33
2022-12-20T00:05:18.418Z,58.17
2022-12-20T00:05:51.194Z,59.93
2022-12-20T00:06:24.578Z,60.47
2022-12-20T00:06:57.378Z,62.03
2022-12-20T00:07:30.270Z,86.27
2022-12-20T00:08:03.057Z,91.87
2022-12-20T00:08:36.565Z,86.87
2022-12-20T00:09:11.722Z,73.43
2022-12-20T00:09:44.594Z,72.33
2022-12-20T00:10:17.391Z,67.47
2022-12-20T00:10:50.174Z,67.33
2022-12-20T00:11:24.563Z,65.57
2022-12-20T00:11:57.389Z,62.87
2022-12-20T00:13:47.642Z,64.37
2022-12-20T00:14:20.375Z,62.33
2022-12-20T00:14:53.108Z,63.00
2022-12-20T00:15:25.996Z,62.33
2022-12-20T00:16:26.064Z,62.50
2022-12-20T00:16:58.826Z,62.03
2022-12-20T00:17:31.626Z,61.57
2022-12-20T00:19:51.188Z,61.30
2022-12-20T00:20:24.446Z,60.80
2022-12-20T00:21:01.089Z,64.23
2022-12-20T00:21:35.109Z,62.73
2022-12-20T00:22:07.996Z,64.87
2022-12-20T00:22:40.788Z,62.33
2022-12-20T00:23:13.576Z,60.97
2022-12-20T00:23:46.627Z,61.33
2022-12-20T00:24:25.631Z,62.23
2022-12-20T00:24:59.061Z,60.90
2022-12-20T00:25:31.848Z,60.27
2022-12-20T00:26:11.245Z,60.50
2022-12-20T00:26:43.996Z,60.67
2022-12-20T00:27:16.748Z,58.30
2022-12-20T00:27:50.421Z,62.33
2022-12-20T00:28:23.177Z,64.40
2022-12-20T00:28:59.185Z,62.50
2022-12-20T00:29:32.107Z,61.67
2022-12-20T00:30:06.375Z,61.80
2022-12-20T00:30:39.152Z,62.37
2022-12-20T00:31:15.544Z,62.27
2022-12-20T00:31:48.560Z,60.80
2022-12-20T00:32:21.406Z,61.70
2022-12-20T00:32:54.199Z,59.47
2022-12-20T00:33:27.047Z,62.83
2022-12-20T00:34:01.231Z,60.47
2022-12-20T00:34:34.008Z,60.47
2022-12-20T00:35:07.170Z,59.27
2022-12-20T00:35:43.224Z,60.73
2022-12-20T00:36:17.616Z,60.53
2022-12-20T00:36:50.418Z,58.20
2022-12-20T00:37:23.178Z,61.27
2022-12-20T00:37:55.948Z,59.73
2022-12-20T00:38:28.889Z,62.63
2022-12-20T00:39:02.537Z,59.60
2022-12-20T00:39:35.336Z,59.40
2022-12-20T00:40:08.875Z,59.53
2022-12-20T00:40:41.664Z,61.33
2022-12-20T00:41:20.485Z,63.03
2022-12-20T00:41:53.272Z,59.67
2022-12-20T00:42:26.020Z,58.00
2022-12-20T00:42:58.789Z,60.37
2022-12-20T00:43:32.793Z,61.33
2022-12-20T00:44:05.730Z,64.47
2022-12-20T00:44:38.512Z,61.17
2022-12-20T00:45:11.450Z,61.07
2022-12-20T00:45:44.208Z,60.07
2022-12-20T00:46:18.875Z,60.20
2022-12-20T00:46:51.829Z,57.90
2022-12-20T00:47:24.656Z,59.73
2022-12-20T00:47:57.412Z,60.57
2022-12-20T00:48:31.718Z,60.53
2022-12-20T00:49:04.529Z,59.90
2022-12-20T00:49:37.313Z,58.83
2022-12-20T00:50:10.343Z,59.60
2022-12-20T00:50:43.133Z,60.10
2022-12-20T00:51:19.227Z,59.47
2022-12-20T00:51:51.982Z,58.67
2022-12-20T00:52:24.830Z,58.90
2022-12-20T00:52:57.597Z,59.77
2022-12-20T00:53:31.366Z,58.60
2022-12-20T00:54:04.303Z,58.63
2022-12-20T00:54:37.399Z,60.10
2022-12-20T00:55:10.263Z,59.50
2022-12-20T00:55:45.445Z,59.50
2022-12-20T00:56:19.094Z,58.83
2022-12-20T00:56:51.913Z,56.87
2022-12-20T00:57:25.024Z,58.27
2022-12-20T00:57:57.837Z,60.20
2022-12-20T00:58:36.589Z,61.33
2022-12-20T00:59:09.394Z,61.40
2022-12-20T00:59:42.171Z,60.67
2022-12-20T01:00:15.428Z,59.30
2022-12-20T01:00:52.211Z,54.70
2022-12-20T01:01:33.292Z,56.10
2022-12-20T01:02:06.309Z,56.57
2022-12-20T01:02:39.317Z,56.50
2022-12-20T01:03:12.367Z,57.63
2022-12-20T01:03:45.518Z,57.37
2022-12-20T01:04:18.357Z,58.27
2022-12-20T01:04:51.123Z,59.20
2022-12-20T01:05:23.911Z,58.33
2022-12-20T01:06:02.612Z,57.83
2022-12-20T01:06:36.749Z,55.87
2022-12-20T01:07:09.604Z,59.17
2022-12-20T01:07:42.403Z,57.50
2022-12-20T01:08:15.551Z,57.47
2022-12-20T01:08:48.593Z,58.53
2022-12-20T01:09:21.369Z,56.53
2022-12-20T01:09:54.288Z,55.23
2022-12-20T01:10:27.592Z,56.47
2022-12-20T01:12:39.811Z,58.93
2022-12-20T01:14:30.886Z,53.37
2022-12-20T01:15:04.152Z,56.73
2022-12-20T01:15:37.227Z,57.63
2022-12-20T01:16:16.980Z,57.80
2022-12-20T01:16:49.855Z,57.23
2022-12-20T01:17:22.665Z,58.30
2022-12-20T01:17:55.492Z,55.43
2022-12-20T01:18:28.254Z,56.00
2022-12-20T01:19:02.071Z,55.10
2022-12-20T01:19:34.893Z,55.97
2022-12-20T01:20:08.334Z,56.67
2022-12-20T01:20:41.103Z,57.57
2022-12-20T01:21:16.487Z,59.67
2022-12-20T01:21:49.262Z,61.53
2022-12-20T01:22:22.068Z,57.43
2022-12-20T01:22:54.837Z,56.60
2022-12-20T01:23:28.396Z,56.50
2022-12-20T01:24:01.368Z,57.13
2022-12-20T01:24:34.125Z,57.27
2022-12-20T01:25:07.386Z,60.17
2022-12-20T01:25:40.371Z,59.27
2022-12-20T01:26:16.444Z,56.90
2022-12-20T01:26:49.405Z,55.67
2022-12-20T01:27:22.346Z,56.67
2022-12-20T01:27:55.144Z,56.80
2022-12-20T01:28:28.988Z,57.03
2022-12-20T01:29:01.883Z,55.37
2022-12-20T01:29:34.636Z,56.37
2022-12-20T01:30:08.140Z,56.33
2022-12-20T01:30:41.573Z,54.97
2022-12-20T01:31:17.537Z,56.77
2022-12-20T01:31:50.386Z,55.50
2022-12-20T01:32:23.214Z,55.10
2022-12-20T01:32:55.992Z,54.93
2022-12-20T01:33:28.754Z,56.07
2022-12-20T01:34:01.784Z,56.20
2022-12-20T01:34:34.580Z,57.20
2022-12-20T01:35:07.574Z,56.67
2022-12-20T01:35:40.423Z,56.67
2022-12-20T01:36:19.324Z,56.67
2022-12-20T01:36:52.063Z,55.03
2022-12-20T01:37:24.826Z,56.33
2022-12-20T01:37:57.604Z,55.30
2022-12-20T01:38:30.809Z,55.50
2022-12-20T01:39:13.184Z,55.97
2022-12-20T01:39:46.055Z,57.57
2022-12-20T01:40:18.950Z,57.90
2022-12-20T01:40:52.867Z,58.07
2022-12-20T01:41:26.570Z,54.67
2022-12-20T01:41:59.368Z,55.53
2022-12-20T01:42:32.138Z,54.37
2022-12-20T01:43:04.924Z,54.93
2022-12-20T01:44:05.636Z,55.27
2022-12-20T01:44:43.417Z,56.93
2022-12-20T01:45:28.539Z,57.73
2022-12-20T01:46:01.532Z,55.00
2022-12-20T01:46:39.633Z,56.87
2022-12-20T01:47:13.398Z,53.70
2022-12-20T01:47:46.311Z,52.90
2022-12-20T01:48:25.535Z,53.30
2022-12-20T01:49:14.675Z,55.10
2022-12-20T01:49:52.134Z,53.63
2022-12-20T01:50:26.579Z,52.47
2022-12-20T01:50:59.392Z,52.67
2022-12-20T01:51:37.101Z,52.33
2022-12-20T01:52:15.946Z,54.30
2022-12-20T01:52:48.991Z,53.23
2022-12-20T01:53:24.515Z,53.70
2022-12-20T01:54:05.216Z,53.60
2022-12-20T01:54:52.675Z,52.40
2022-12-20T01:55:28.080Z,54.67
2022-12-20T01:56:05.388Z,54.80
2022-12-20T01:56:41.376Z,54.23
2022-12-20T01:57:22.350Z,56.30
2022-12-20T01:58:08.632Z,53.80
2022-12-20T01:58:43.725Z,53.73
2022-12-20T01:59:17.181Z,54.67
2022-12-20T01:59:52.676Z,53.83
2022-12-20T02:00:26.071Z,53.57
2022-12-20T02:00:59.224Z,53.03
2022-12-20T02:01:32.709Z,54.20
2022-12-20T02:03:29.825Z,51.00
2022-12-20T02:04:03.667Z,52.57
2022-12-20T02:04:36.488Z,52.63
2022-12-20T02:05:09.679Z,55.47
2022-12-20T02:05:47.903Z,53.40
2022-12-20T02:06:24.446Z,55.23
2022-12-20T02:07:00.280Z,52.97
2022-12-20T02:07:38.154Z,53.67
2022-12-20T02:08:13.645Z,54.57
2022-12-20T02:08:51.032Z,54.33
2022-12-20T02:09:24.350Z,55.67
2022-12-20T02:10:00.976Z,55.77
2022-12-20T02:11:06.449Z,54.33
2022-12-20T02:12:08.676Z,54.67
2022-12-20T02:12:46.596Z,53.67
2022-12-20T02:13:56.296Z,54.80
2022-12-20T02:15:06.191Z,53.07
2022-12-20T02:15:56.373Z,53.33
2022-12-20T02:16:35.522Z,56.63
2022-12-20T02:17:17.234Z,54.27
2022-12-20T02:18:15.453Z,55.77
2022-12-20T02:23:05.902Z,57.30
2022-12-20T02:24:10.225Z,57.80
2022-12-20T02:24:59.463Z,54.00
2022-12-20T02:25:53.168Z,56.63
2022-12-20T02:26:44.185Z,55.03
2022-12-20T02:27:43.883Z,55.87
2022-12-20T02:28:40.695Z,54.20
2022-12-20T02:29:23.746Z,52.77
2022-12-20T02:30:10.459Z,55.07
2022-12-20T02:30:47.426Z,55.73
2022-12-20T02:31:27.640Z,56.93
2022-12-20T02:32:07.870Z,53.67
2022-12-20T02:32:47.916Z,56.20
2022-12-20T02:33:24.024Z,54.87
2022-12-20T02:33:59.203Z,55.87
2022-12-20T02:34:35.619Z,56.87
2022-12-20T02:35:13.222Z,55.17
2022-12-20T02:35:45.973Z,53.60
2022-12-20T02:36:19.172Z,54.10
2022-12-20T02:36:52.997Z,55.40
2022-12-20T02:37:25.816Z,57.97
2022-12-20T02:38:02.704Z,56.23
2022-12-20T02:38:38.607Z,55.40
2022-12-20T02:39:17.351Z,55.93
2022-12-20T02:39:50.602Z,55.90
2022-12-20T02:40:50.930Z,55.53
2022-12-20T02:41:34.998Z,56.30
2022-12-20T02:42:11.100Z,56.13
2022-12-20T02:42:44.957Z,56.67
2022-12-20T02:43:37.327Z,54.67
2022-12-20T02:44:33.066Z,54.20
2022-12-20T02:45:17.595Z,55.40
2022-12-20T02:45:50.881Z,56.37
2022-12-20T02:46:26.643Z,55.50
2022-12-20T02:47:05.321Z,54.47
2022-12-20T02:47:50.565Z,54.53
2022-12-20T02:48:28.575Z,55.37
2022-12-20T02:49:11.564Z,53.73
2022-12-20T02:49:47.406Z,55.00
2022-12-20T02:50:30.492Z,52.73
2022-12-20T02:51:06.229Z,57.37
2022-12-20T02:51:43.573Z,57.20
2022-12-20T02:52:21.198Z,56.80
2022-12-20T02:52:55.320Z,54.60
2022-12-20T02:53:29.644Z,55.93
2022-12-20T02:54:03.218Z,55.93
2022-12-20T02:54:38.055Z,53.17
2022-12-20T02:55:11.811Z,55.37
2022-12-20T02:56:01.944Z,55.00
2022-12-20T02:56:52.479Z,52.73
2022-12-20T02:57:40.317Z,53.77
2022-12-20T02:58:27.154Z,54.63
2022-12-20T02:59:30.072Z,55.50
2022-12-20T03:00:18.297Z,54.77
2022-12-20T03:00:54.051Z,54.60
2022-12-20T03:01:38.100Z,56.73
2022-12-20T03:02:12.755Z,56.00
2022-12-20T03:03:05.731Z,53.90
2022-12-20T03:03:39.036Z,54.93
2022-12-20T03:04:12.618Z,53.10
2022-12-20T03:04:48.051Z,53.10
2022-12-20T03:05:24.454Z,52.97
2022-12-20T03:05:57.289Z,52.10
2022-12-20T03:06:30.826Z,52.07
2022-12-20T03:07:06.721Z,54.30
2022-12-20T03:07:39.547Z,54.50
2022-12-20T03:08:12.492Z,55.60
2022-12-20T03:08:45.287Z,57.20
2022-12-20T03:09:18.078Z,57.20
2022-12-20T03:09:50.881Z,54.17
2022-12-20T03:10:24.371Z,54.47
2022-12-20T03:10:57.268Z,53.70
2022-12-20T03:11:30.063Z,54.17
2022-12-20T03:12:03.500Z,54.20
2022-12-20T03:12:36.234Z,55.60
2022-12-20T03:13:09.003Z,54.27
2022-12-20T03:13:41.921Z,56.20
2022-12-20T03:14:14.709Z,55.00
2022-12-20T03:14:47.529Z,53.00
2022-12-20T03:15:20.491Z,53.97
2022-12-20T03:15:53.246Z,54.20
2022-12-20T03:16:26.062Z,53.27
2022-12-20T03:16:58.991Z,51.93
2022-12-20T03:17:31.780Z,51.33
2022-12-20T03:18:05.191Z,52.43
2022-12-20T03:18:38.711Z,54.43
2022-12-20T03:19:11.783Z,56.07
2022-12-20T03:19:44.565Z,54.63
2022-12-20T03:20:17.615Z,54.43
2022-12-20T03:20:50.403Z,52.53
2022-12-20T03:21:23.195Z,53.47
2022-12-20T03:21:56.029Z,53.53
2022-12-20T03:22:28.822Z,53.10
2022-12-20T03:23:01.650Z,54.07
2022-12-20T03:23:34.493Z,54.07
2022-12-20T03:24:07.752Z,53.20
2022-12-20T03:24:40.510Z,54.40
2022-12-20T03:25:13.406Z,54.83
2022-12-20T03:25:46.264Z,54.67
2022-12-20T03:26:19.052Z,54.57
2022-12-20T03:26:52.234Z,53.20
2022-12-20T03:27:26.071Z,53.03
2022-12-20T03:27:58.920Z,52.40
2022-12-20T03:28:31.696Z,53.90
2022-12-20T03:29:04.725Z,53.03
2022-12-20T03:29:37.521Z,54.77
2022-12-20T03:30:10.752Z,53.17
2022-12-20T03:30:43.546Z,52.80
2022-12-20T03:31:16.489Z,51.97
2022-12-20T03:31:49.315Z,53.33
2022-12-20T03:32:22.398Z,51.53
2022-12-20T03:32:55.239Z,51.57
2022-12-20T03:33:28.044Z,51.23
2022-12-20T03:34:00.975Z,50.63
2022-12-20T03:34:33.737Z,52.30
2022-12-20T03:35:07.171Z,53.97
2022-12-20T03:35:40.227Z,51.93
2022-12-20T03:36:13.004Z,53.27
2022-12-20T03:36:45.767Z,54.43
2022-12-20T03:37:18.685Z,53.33
2022-12-20T03:37:51.468Z,52.43
2022-12-20T03:38:24.305Z,52.43
2022-12-20T03:38:57.275Z,54.30
2022-12-20T03:39:30.124Z,53.20
2022-12-20T03:40:03.241Z,52.63
2022-12-20T03:40:35.998Z,53.63
2022-12-20T03:41:08.782Z,53.03
2022-12-20T03:44:15.130Z,49.40
2022-12-20T03:44:47.993Z,55.83
2022-12-20T03:45:20.798Z,54.57
2022-12-20T03:45:53.589Z,55.07
2022-12-20T03:46:26.487Z,55.67
2022-12-20T03:46:59.325Z,54.57
2022-12-20T03:47:32.322Z,53.67
2022-12-20T03:48:05.111Z,51.33
2022-12-20T03:48:37.890Z,52.70
2022-12-20T03:49:10.656Z,51.67
2022-12-20T03:49:43.427Z,51.50
2022-12-20T03:50:16.452Z,50.77
2022-12-20T03:50:49.359Z,53.13
2022-12-20T03:51:22.162Z,53.20
2022-12-20T03:51:55.007Z,52.87
2022-12-20T03:52:27.810Z,54.20
2022-12-20T03:53:00.970Z,55.17
2022-12-20T03:53:34.261Z,51.93
2022-12-20T03:54:07.492Z,52.77
2022-12-20T03:54:40.572Z,51.70
2022-12-20T03:55:13.372Z,51.70
2022-12-20T03:55:46.217Z,51.60
2022-12-20T03:56:19.377Z,51.50
2022-12-20T03:56:52.165Z,49.90
2022-12-20T03:57:24.979Z,52.37
2022-12-20T03:57:57.761Z,52.07
2022-12-20T03:58:30.550Z,52.00
2022-12-20T03:59:03.370Z,51.77
2022-12-20T03:59:36.252Z,53.30
2022-12-20T04:00:09.642Z,53.50
2022-12-20T04:00:42.528Z,53.00
2022-12-20T04:01:24.074Z,51.70
2022-12-20T04:01:57.097Z,52.40
2022-12-20T04:02:30.153Z,52.37
2022-12-20T04:03:03.198Z,52.40
2022-12-20T04:03:36.152Z,52.67
2022-12-20T04:04:12.617Z,50.77
2022-12-20T04:04:45.665Z,52.07
2022-12-20T04:05:18.664Z,51.73
2022-12-20T04:05:51.977Z,52.27
2022-12-20T04:06:24.799Z,53.17
2022-12-20T04:06:57.600Z,51.63
2022-12-20T04:07:30.416Z,51.83
2022-12-20T04:08:03.301Z,52.80
2022-12-20T04:08:36.084Z,51.67
2022-12-20T04:09:08.903Z,54.13
2022-12-20T04:09:41.689Z,53.20
2022-12-20T04:10:14.550Z,53.67
2022-12-20T04:11:06.194Z,51.53
2022-12-20T04:11:39.532Z,51.97
2022-12-20T04:12:12.328Z,52.00
2022-12-20T04:12:45.097Z,52.63
2022-12-20T04:13:17.879Z,50.17
2022-12-20T04:13:53.327Z,50.23
2022-12-20T04:14:26.135Z,49.17
2022-12-20T04:14:58.928Z,51.13
2022-12-20T04:15:31.818Z,49.73
2022-12-20T04:16:04.985Z,50.43
2022-12-20T04:16:37.841Z,49.27
2022-12-20T04:17:11.092Z,50.03
2022-12-20T04:17:43.902Z,50.60
2022-12-20T04:18:16.684Z,50.40
2022-12-20T04:18:49.714Z,52.63
2022-12-20T04:19:22.584Z,50.63
2022-12-20T04:19:55.359Z,50.93
2022-12-20T04:20:28.180Z,50.60
2022-12-20T04:21:01.787Z,50.23
2022-12-20T04:21:36.036Z,49.00
2022-12-20T04:22:08.837Z,49.47
2022-12-20T04:22:41.632Z,48.27
2022-12-20T04:23:14.413Z,48.47
2022-12-20T04:23:47.178Z,49.23
2022-12-20T04:24:19.937Z,50.77
2022-12-20T04:24:52.769Z,50.30
2022-12-20T04:25:25.788Z,47.23
2022-12-20T04:25:58.549Z,49.73
2022-12-20T04:26:31.828Z,49.70
2022-12-20T04:27:04.616Z,49.80
2022-12-20T04:27:37.372Z,50.37
2022-12-20T04:28:10.200Z,50.73
2022-12-20T04:28:42.971Z,48.57
2022-12-20T04:29:15.906Z,49.50
2022-12-20T04:29:48.706Z,49.10
2022-12-20T04:30:21.606Z,48.40
2022-12-20T04:30:54.499Z,49.47
2022-12-20T04:31:27.432Z,48.03
2022-12-20T04:32:00.372Z,49.37
2022-12-20T04:32:33.194Z,50.93
2022-12-20T04:33:05.996Z,49.57
2022-12-20T04:33:39.218Z,49.73
2022-12-20T04:34:12.007Z,48.77
2022-12-20T04:34:44.786Z,50.27
2022-12-20T04:35:17.652Z,51.63
2022-12-20T04:35:50.711Z,48.07
2022-12-20T04:36:23.492Z,49.73
2022-12-20T04:36:56.325Z,50.90
2022-12-20T04:37:29.102Z,49.63
2022-12-20T04:38:01.940Z,52.00
2022-12-20T04:38:34.808Z,49.57
2022-12-20T04:39:07.626Z,50.43
2022-12-20T04:39:40.408Z,48.97
2022-12-20T04:40:13.607Z,47.87
2022-12-20T04:40:50.158Z,47.53
2022-12-20T04:41:23.084Z,50.67
2022-12-20T04:41:55.888Z,51.67
2022-12-20T04:42:28.698Z,50.50
2022-12-20T04:43:01.483Z,49.80
2022-12-20T04:43:34.338Z,51.10
2022-12-20T04:44:07.154Z,49.50
2022-12-20T04:44:40.038Z,48.53
2022-12-20T04:45:12.847Z,48.77
2022-12-20T04:45:47.972Z,48.10
2022-12-20T04:46:22.508Z,49.00
2022-12-20T04:46:55.427Z,49.57
2022-12-20T04:47:28.296Z,48.80
2022-12-20T04:48:21.031Z,48.10
2022-12-20T04:48:57.758Z,48.77
2022-12-20T04:49:31.553Z,50.47
2022-12-20T04:51:23.453Z,49.87
2022-12-20T04:52:16.034Z,49.07
2022-12-20T04:53:07.417Z,48.30
2022-12-20T04:53:49.239Z,50.10
2022-12-20T04:54:26.038Z,49.77
2022-12-20T04:54:58.842Z,48.77
2022-12-20T04:55:31.974Z,46.10
2022-12-20T04:56:05.365Z,48.63
2022-12-20T04:56:39.175Z,48.73
2022-12-20T04:57:12.056Z,48.90
2022-12-20T04:57:45.116Z,48.73
2022-12-20T04:58:18.493Z,49.37
2022-12-20T04:58:53.320Z,46.60
2022-12-20T04:59:26.170Z,46.37
2022-12-20T04:59:59.145Z,47.27
2022-12-20T05:00:32.309Z,48.43
2022-12-20T05:01:05.176Z,48.10
2022-12-20T05:01:38.187Z,47.97
2022-12-20T05:02:11.189Z,47.77
2022-12-20T05:02:44.445Z,48.73
2022-12-20T05:03:17.427Z,47.07
2022-12-20T05:03:50.705Z,46.63
2022-12-20T05:04:23.636Z,46.63
2022-12-20T05:04:56.460Z,48.30
2022-12-20T05:05:29.502Z,47.00
2022-12-20T05:06:02.379Z,47.43
2022-12-20T05:06:35.231Z,45.83
2022-12-20T05:07:08.372Z,49.10
2022-12-20T05:07:41.159Z,48.03
2022-12-20T05:08:14.581Z,45.10
2022-12-20T05:08:48.006Z,46.50
2022-12-20T05:09:20.829Z,47.20
2022-12-20T05:09:53.635Z,47.73
2022-12-20T05:10:26.465Z,48.80
2022-12-20T05:10:59.259Z,50.00
2022-12-20T05:11:32.049Z,48.50
2022-12-20T05:12:04.948Z,47.97
2022-12-20T05:12:37.776Z,46.57
2022-12-20T05:13:10.911Z,46.47
2022-12-20T05:13:44.000Z,47.73
2022-12-20T05:14:16.761Z,48.30
2022-12-20T05:14:49.550Z,49.17
2022-12-20T05:15:22.319Z,49.17
2022-12-20T05:15:57.055Z,49.40
2022-12-20T05:16:29.853Z,47.07
2022-12-20T05:17:02.701Z,47.50
2022-12-20T05:17:35.526Z,47.83
2022-12-20T05:18:08.403Z,48.70
2022-12-20T05:18:48.197Z,46.90
2022-12-20T05:19:21.867Z,46.53
2022-12-20T05:19:54.669Z,45.73
2022-12-20T05:20:28.749Z,47.20
2022-12-20T05:21:20.653Z,47.73
2022-12-20T05:22:11.777Z,47.07
2022-12-20T05:23:03.244Z,48.80
2022-12-20T05:23:54.463Z,47.77
2022-12-20T05:24:45.554Z,48.33
2022-12-20T05:25:37.003Z,49.17
2022-12-20T05:26:18.543Z,48.07
2022-12-20T05:26:51.367Z,47.57
2022-12-20T05:27:24.142Z,48.63
2022-12-20T05:27:57.086Z,48.73
2022-12-20T05:28:31.301Z,47.27
2022-12-20T05:29:05.054Z,45.93
2022-12-20T05:29:37.887Z,46.23
2022-12-20T05:30:11.274Z,47.20
2022-12-20T05:30:44.643Z,45.70
2022-12-20T05:31:17.562Z,45.97
2022-12-20T05:31:50.634Z,47.93
2022-12-20T05:32:23.416Z,47.03
2022-12-20T05:32:56.498Z,48.13
2022-12-20T05:33:33.836Z,47.03
2022-12-20T05:34:07.076Z,44.83
2022-12-20T05:34:39.916Z,45.90
2022-12-20T05:35:13.034Z,48.20
2022-12-20T05:35:45.882Z,47.90
2022-12-20T05:36:18.713Z,48.07
2022-12-20T05:36:51.639Z,48.57
2022-12-20T05:37:24.520Z,47.23
2022-12-20T05:37:57.280Z,48.10
2022-12-20T05:38:30.063Z,48.77
2022-12-20T05:39:04.580Z,48.23
2022-12-20T05:39:37.658Z,48.73
2022-12-20T05:40:10.949Z,48.00
2022-12-20T05:40:44.374Z,46.63
2022-12-20T05:41:17.204Z,46.87
2022-12-20T05:41:50.371Z,46.73
2022-12-20T05:42:23.125Z,47.30
2022-12-20T05:42:55.940Z,47.07
2022-12-20T05:43:28.756Z,45.47
2022-12-20T05:44:01.946Z,46.70
2022-12-20T05:44:34.935Z,48.47
2022-12-20T05:45:08.121Z,47.70
2022-12-20T05:45:41.026Z,46.90
2022-12-20T05:46:13.862Z,45.97
2022-12-20T05:46:46.695Z,46.50
2022-12-20T05:47:19.483Z,46.77
2022-12-20T05:49:09.108Z,50.73
2022-12-20T05:49:41.733Z,47.90
2022-12-20T05:50:18.625Z,45.70
2022-12-20T05:50:51.875Z,45.73
2022-12-20T05:51:24.825Z,45.47
2022-12-20T05:51:57.598Z,45.97
2022-12-20T05:52:30.526Z,46.07
2022-12-20T05:53:09.099Z,47.07
2022-12-20T05:53:44.792Z,45.33
2022-12-20T05:54:17.613Z,43.40
2022-12-20T05:54:50.400Z,44.57
2022-12-20T05:55:23.203Z,44.80
2022-12-20T05:55:56.173Z,45.23
2022-12-20T05:56:28.972Z,44.83
2022-12-20T05:57:01.854Z,46.50
2022-12-20T05:57:34.644Z,47.40
2022-12-20T05:58:08.112Z,47.30
2022-12-20T05:58:40.858Z,45.43
2022-12-20T05:59:13.647Z,45.50
2022-12-20T05:59:46.608Z,44.03
2022-12-20T06:00:19.715Z,44.47
2022-12-20T06:00:52.554Z,43.03
2022-12-20T06:01:25.438Z,43.47
2022-12-20T06:01:58.408Z,43.57
2022-12-20T06:02:31.424Z,43.53
2022-12-20T06:03:04.376Z,44.50
2022-12-20T06:03:38.335Z,44.57
2022-12-20T06:04:11.388Z,43.70
2022-12-20T06:04:44.204Z,43.20
2022-12-20T06:05:17.019Z,45.40
2022-12-20T06:05:49.791Z,46.20
2022-12-20T06:06:22.588Z,46.10
2022-12-20T06:06:55.453Z,45.27
2022-12-20T06:07:31.794Z,43.77
2022-12-20T06:08:06.370Z,43.87
2022-12-20T06:08:39.201Z,44.60
2022-12-20T06:09:12.120Z,42.03
2022-12-20T06:09:45.001Z,43.27
2022-12-20T06:10:17.842Z,44.10
2022-12-20T06:10:51.402Z,46.80
2022-12-20T06:11:29.567Z,43.27
2022-12-20T06:12:02.762Z,42.67
2022-12-20T06:12:35.551Z,44.67
2022-12-20T06:13:09.440Z,43.83
2022-12-20T06:13:42.288Z,43.37
2022-12-20T06:14:15.058Z,41.57
2022-12-20T06:14:47.840Z,41.27
2022-12-20T06:15:20.731Z,44.27
2022-12-20T06:15:53.815Z,44.20
2022-12-20T06:16:27.319Z,44.47
2022-12-20T06:17:00.121Z,44.20
2022-12-20T06:17:32.908Z,43.70
2022-12-20T06:18:09.884Z,43.43
2022-12-20T06:18:42.694Z,42.67
2022-12-20T06:19:21.168Z,41.90
2022-12-20T06:19:54.249Z,42.33
2022-12-20T06:20:28.660Z,42.87
2022-12-20T06:21:02.104Z,43.43
2022-12-20T06:21:34.905Z,43.77
2022-12-20T06:22:08.896Z,41.40
2022-12-20T06:22:41.689Z,44.23
2022-12-20T06:23:14.430Z,45.63
2022-12-20T06:23:47.411Z,42.47
2022-12-20T06:24:21.316Z,43.27
2022-12-20T06:24:54.130Z,43.87
2022-12-20T06:25:28.475Z,44.13
2022-12-20T06:26:01.232Z,44.70
2022-12-20T06:26:37.143Z,43.97
2022-12-20T06:27:10.014Z,42.43
2022-12-20T06:27:43.364Z,42.23
2022-12-20T06:28:21.599Z,42.53
2022-12-20T06:28:57.099Z,43.63
2022-12-20T06:29:30.593Z,43.20
2022-12-20T06:30:06.899Z,43.97
2022-12-20T06:30:39.705Z,44.20
2022-12-20T06:31:12.491Z,43.77
2022-12-20T06:31:45.364Z,44.00
2022-12-20T06:32:18.573Z,44.47
2022-12-20T06:32:51.332Z,42.67
2022-12-20T06:33:25.233Z,43.47
2022-12-20T06:33:58.071Z,44.67
2022-12-20T06:34:31.469Z,43.60
2022-12-20T06:35:04.818Z,43.63
2022-12-20T06:35:37.630Z,44.10
2022-12-20T06:36:10.594Z,45.40
2022-12-20T06:36:43.483Z,44.67
2022-12-20T06:37:16.239Z,44.20
2022-12-20T06:37:49.025Z,43.80
2022-12-20T06:38:21.812Z,43.47
2022-12-20T06:38:54.663Z,44.40
2022-12-20T06:39:27.452Z,44.47
2022-12-20T06:40:00.366Z,43.70
2022-12-20T06:40:33.161Z,44.83
2022-12-20T06:41:05.956Z,45.10
2022-12-20T06:41:40.171Z,44.57
2022-12-20T06:42:13.044Z,44.00
2022-12-20T06:42:45.846Z,43.87
2022-12-20T06:43:18.654Z,44.50
2022-12-20T06:43:51.431Z,43.37
2022-12-20T06:44:24.200Z,44.53
2022-12-20T06:44:56.964Z,44.87
2022-12-20T06:45:29.791Z,44.00
2022-12-20T06:46:02.985Z,44.23
2022-12-20T06:46:35.920Z,45.03
2022-12-20T06:47:08.713Z,45.27
2022-12-20T06:47:41.719Z,45.50
2022-12-20T06:48:14.554Z,45.60
2022-12-20T06:48:47.393Z,43.57
2022-12-20T06:49:20.225Z,44.03
2022-12-20T06:49:53.097Z,43.17
2022-12-20T06:50:26.939Z,44.17
2022-12-20T06:50:59.877Z,44.93
2022-12-20T06:51:32.676Z,45.47
2022-12-20T06:52:05.607Z,44.53
2022-12-20T06:52:38.444Z,44.43
2022-12-20T06:53:11.277Z,42.93
2022-12-20T06:53:44.087Z,43.17
2022-12-20T06:54:16.865Z,42.70
2022-12-20T06:54:49.703Z,42.00
2022-12-20T06:55:22.560Z,42.83
2022-12-20T06:55:55.407Z,43.30
2022-12-20T06:56:28.268Z,44.83
2022-12-20T06:57:01.047Z,43.30
2022-12-20T06:57:33.870Z,45.27
2022-12-20T06:58:06.902Z,44.83
2022-12-20T06:58:39.829Z,43.63
2022-12-20T06:59:12.643Z,44.87
2022-12-20T06:59:45.419Z,43.83
2022-12-20T07:00:18.746Z,42.37
2022-12-20T07:00:51.584Z,42.90
2022-12-20T07:01:24.444Z,45.13
2022-12-20T07:01:57.492Z,44.90
2022-12-20T07:02:30.533Z,43.60
2022-12-20T07:03:03.511Z,41.93
2022-12-20T07:03:36.729Z,44.33
2022-12-20T07:04:09.561Z,45.57
2022-12-20T07:04:42.414Z,45.70
2022-12-20T07:05:15.303Z,44.10
2022-12-20T07:05:54.398Z,44.03
2022-12-20T07:06:29.077Z,45.17
2022-12-20T07:07:01.880Z,45.27
2022-12-20T07:07:40.193Z,45.43
2022-12-20T07:08:17.283Z,43.37
2022-12-20T07:08:50.105Z,43.93
2022-12-20T07:09:23.053Z,41.97
2022-12-20T07:09:55.916Z,44.47
2022-12-20T07:10:28.725Z,44.63
2022-12-20T07:11:08.347Z,43.47
2022-12-20T07:11:43.312Z,42.33
2022-12-20T07:12:16.941Z,42.60
2022-12-20T07:12:49.733Z,44.90
2022-12-20T07:13:23.247Z,46.93
2022-12-20T07:13:59.434Z,44.20
2022-12-20T07:14:32.231Z,44.50
2022-12-20T07:15:05.418Z,44.00
2022-12-20T07:15:38.214Z,44.83
2022-12-20T07:16:11.012Z,46.13
2022-12-20T07:16:44.037Z,43.70
2022-12-20T07:17:16.977Z,44.47
2022-12-20T07:17:49.782Z,43.13
2022-12-20T07:18:22.553Z,43.23
2022-12-20T07:18:55.683Z,44.27
2022-12-20T07:19:28.497Z,43.20
2022-12-20T07:20:03.241Z,42.33
2022-12-20T07:20:39.378Z,42.00
2022-12-20T07:21:14.205Z,42.27
2022-12-20T07:21:47.689Z,44.40
2022-12-20T07:22:20.484Z,45.70
2022-12-20T07:22:53.317Z,45.87
2022-12-20T07:23:26.134Z,44.40
2022-12-20T07:23:59.009Z,42.37
2022-12-20T07:24:32.542Z,43.07
2022-12-20T07:25:05.669Z,44.00
2022-12-20T07:25:38.426Z,44.57
2022-12-20T07:26:11.786Z,46.63
2022-12-20T07:26:45.735Z,44.43
2022-12-20T07:27:18.573Z,44.30
2022-12-20T07:27:51.897Z,45.70
2022-12-20T07:28:26.217Z,45.30
2022-12-20T07:28:59.057Z,43.77
2022-12-20T07:29:31.850Z,43.33
2022-12-20T07:30:05.915Z,45.90
2022-12-20T07:30:38.694Z,44.17
2022-12-20T07:31:11.560Z,44.57
2022-12-20T07:31:44.468Z,44.60
2022-12-20T07:32:17.371Z,43.07
2022-12-20T07:32:50.252Z,45.40
2022-12-20T07:33:23.111Z,46.60
2022-12-20T07:33:55.884Z,44.20
2022-12-20T07:34:28.694Z,43.47
2022-12-20T07:35:01.632Z,41.73
2022-12-20T07:35:34.447Z,41.40
2022-12-20T07:36:11.362Z,41.70
2022-12-20T07:36:44.200Z,43.27
2022-12-20T07:37:16.990Z,44.40
2022-12-20T07:37:49.767Z,43.87
2022-12-20T07:38:22.579Z,44.77
2022-12-20T07:38:55.346Z,43.77
2022-12-20T07:39:28.187Z,41.53
2022-12-20T07:40:01.076Z,41.27
2022-12-20T07:40:33.885Z,41.40
2022-12-20T07:41:12.191Z,41.10
2022-12-20T07:41:45.035Z,41.67
2022-12-20T07:42:18.861Z,42.40
2022-12-20T07:42:51.657Z,42.43
2022-12-20T07:43:24.535Z,41.70
2022-12-20T07:43:59.331Z,40.53
2022-12-20T07:44:32.261Z,42.00